Time,TemperatureF,DewpointF,PressureIn,WindDirection,WindDirectionDegrees,WindSpeedMPH,WindSpeedGustMPH,Humidity,HourlyPrecipIn,Conditions,Clouds,dailyrainin,SoftwareType,DateUTC
2013-07-03 00:04:00,75.8,52.9,29.98,NNW,347,0.0,0.0,45,0.00,CLR,,0.00,WeatherDisplay:10.37,2013-07-03 05:04:00,
2013-07-03 00:07:00,75.7,53.4,29.98,NNW,347,0.0,0.0,46,0.00,CLR,,0.00,WeatherDisplay:10.37,2013-07-03 05:07:00,
2013-07-03 00:12:00,75.5,53.3,29.98,NNW,347,0.0,0.0,46,0.00,CLR,,0.00,WeatherDisplay:10.37,2013-07-03 05:12:00,
2013-07-03 00:17:00,75.4,53.2,29.99,NNW,347,0.0,0.0,46,0.00,CLR,,0.00,WeatherDisplay:10.37,2013-07-03 05:17:00,
2013-07-03 00:19:00,75.4,53.8,29.98,NNW,347,0.0,0.0,47,0.00,CLR,,0.00,WeatherDisplay:10.37,2013-07-03 05:19:00,
2013-07-03 00:24:00,75.2,53.6,29.98,NNW,347,0.0,0.0,47,0.00,CLR,,0.00,WeatherDisplay:10.37,2013-07-03 05:24:00,
2013-07-03 00:30:00,74.7,54.3,29.98,NNW,338,0.0,0.0,49,0.00,CLR,,0.00,WeatherDisplay:10.37,2013-07-03 05:30:00,
2013-07-03 00:36:00,74.3,53.9,29.99,NNW,338,0.0,0.0,49,0.00,CLR,,0.00,WeatherDisplay:10.37,2013-07-03 05:36:00,
2013-07-03 00:41:00,73.9,54.6,29.99,NNW,338,0.0,0.0,51,0.00,CLR,,0.00,WeatherDisplay:10.37,2013-07-03 05:41:00,
2013-07-03 00:46:00,73.3,54.6,29.98,NNW,339,0.0,0.0,52,0.00,CLR,,0.00,WeatherDisplay:10.37,2013-07-03 05:46:00,
2013-07-03 00:53:00,72.2,54.6,29.98,NNW,338,0.0,0.0,54,0.00,CLR,,0.00,WeatherDisplay:10.37,2013-07-03 05:53:00,
2013-07-03 00:54:00,72.0,54.9,29.98,NNW,338,0.0,0.0,55,0.00,CLR,,0.00,WeatherDisplay:10.37,2013-07-03 05:54:00,
2013-07-03 00:57:00,71.8,54.8,29.98,NNW,339,0.0,0.0,55,0.00,CLR,,0.00,WeatherDisplay:10.37,2013-07-03 05:57:00,
2013-07-03 00:59:00,71.9,54.9,29.98,NW,326,3.5,3.5,55,0.00,CLR,,0.00,WeatherDisplay:10.37,2013-07-03 05:59:00,
2013-07-03 01:03:00,71.7,54.7,29.98,North,356,0.0,0.0,55,0.00,CLR,,0.00,WeatherDisplay:10.37,2013-07-03 06:03:00,
2013-07-03 01:08:00,71.3,54.8,29.98,NNW,338,0.0,0.0,56,0.00,CLR,,0.00,WeatherDisplay:10.37,2013-07-03 06:08:00,
2013-07-03 01:14:00,70.9,54.9,29.98,NNW,336,1.1,0.0,57,0.00,CLR,,0.00,WeatherDisplay:10.37,2013-07-03 06:14:00,
2013-07-03 01:16:00,70.9,54.9,29.98,North,352,1.1,0.0,57,0.00,CLR,,0.00,WeatherDisplay:10.37,2013-07-03 06:16:00,
2013-07-03 01:17:00,71.0,54.5,29.98,North,349,0.0,0.0,56,0.00,CLR,,0.00,WeatherDisplay:10.37,2013-07-03 06:17:00,
2013-07-03 01:22:00,71.2,54.7,29.99,West,270,2.3,2.3,56,0.00,CLR,,0.00,WeatherDisplay:10.37,2013-07-03 06:22:00,
2013-07-03 01:24:00,71.2,54.2,29.99,WSW,249,0.0,0.0,55,0.00,CLR,,0.00,WeatherDisplay:10.37,2013-07-03 06:24:00,
2013-07-03 01:26:00,71.2,54.2,29.99,West,259,1.1,1.1,55,0.00,CLR,,0.00,WeatherDisplay:10.37,2013-07-03 06:26:00,
2013-07-03 01:31:00,71.0,54.5,29.99,North,349,0.0,0.0,56,0.00,CLR,,0.00,WeatherDisplay:10.37,2013-07-03 06:31:00,
2013-07-03 01:32:00,71.0,54.0,29.99,West,271,1.1,1.1,55,0.00,CLR,,0.00,WeatherDisplay:10.37,2013-07-03 06:32:00,
2013-07-03 01:37:00,71.2,54.7,29.99,NNW,336,1.1,1.1,56,0.00,CLR,,0.00,WeatherDisplay:10.37,2013-07-03 06:37:00,
2013-07-03 01:43:00,71.4,54.4,29.99,NNW,342,1.1,1.1,55,0.00,CLR,,0.00,WeatherDisplay:10.37,2013-07-03 06:43:00,
2013-07-03 01:44:00,71.5,54.5,29.99,North,354,2.3,2.3,55,0.00,CLR,,0.00,WeatherDisplay:10.37,2013-07-03 06:44:00,
2013-07-03 01:49:00,71.5,54.0,29.99,NW,318,1.1,0.0,54,0.00,CLR,,0.00,WeatherDisplay:10.37,2013-07-03 06:49:00,
2013-07-03 01:54:00,71.6,54.1,29.98,North,354,2.3,2.3,54,0.00,CLR,,0.00,WeatherDisplay:10.37,2013-07-03 06:54:00,
2013-07-03 01:55:00,71.6,54.1,29.98,North,354,1.1,1.1,54,0.00,CLR,,0.00,WeatherDisplay:10.37,2013-07-03 06:55:00,
2013-07-03 02:00:00,71.6,54.1,29.98,NNW,333,1.1,0.0,54,0.00,CLR,,0.00,WeatherDisplay:10.37,2013-07-03 07:00:00,
2013-07-03 02:05:00,71.4,53.9,29.99,ENE,66,2.3,2.3,54,0.00,CLR,,0.00,WeatherDisplay:10.37,2013-07-03 07:05:00,
2013-07-03 02:10:00,71.1,53.6,29.98,ENE,78,0.0,0.0,54,0.00,CLR,,0.00,WeatherDisplay:10.37,2013-07-03 07:10:00,
2013-07-03 02:15:00,70.9,53.9,29.99,NE,43,1.1,1.1,55,0.00,CLR,,0.00,WeatherDisplay:10.37,2013-07-03 07:15:00,
2013-07-03 02:17:00,70.9,53.9,29.99,NE,44,0.0,0.0,55,0.00,CLR,,0.00,WeatherDisplay:10.37,2013-07-03 07:17:00,
2013-07-03 02:22:00,70.7,53.7,29.99,NNE,17,1.1,1.1,55,0.00,CLR,,0.00,WeatherDisplay:10.37,2013-07-03 07:22:00,
2013-07-03 02:28:00,70.4,53.5,29.99,North,357,3.0,3.0,55,0.00,CLR,,0.00,WeatherDisplay:10.37,2013-07-03 07:28:00,
2013-07-03 02:33:00,70.5,53.1,29.99,NNE,17,1.1,1.1,54,0.00,CLR,,0.00,WeatherDisplay:10.37,2013-07-03 07:33:00,
2013-07-03 02:38:00,70.7,52.7,29.99,North,351,3.5,3.5,53,0.00,CLR,,0.00,WeatherDisplay:10.37,2013-07-03 07:38:00,
2013-07-03 02:44:00,70.9,52.9,29.99,NW,316,3.5,3.5,53,0.00,CLR,,0.00,WeatherDisplay:10.37,2013-07-03 07:44:00,
2013-07-03 02:49:00,71.0,52.5,29.99,NNW,335,3.5,3.5,52,0.00,CLR,,0.00,WeatherDisplay:10.37,2013-07-03 07:49:00,
2013-07-03 02:50:00,71.1,52.6,29.99,NW,321,2.3,2.3,52,0.00,CLR,,0.00,WeatherDisplay:10.37,2013-07-03 07:50:00,
2013-07-03 02:55:00,71.2,52.7,29.99,NE,47,3.5,3.5,52,0.00,CLR,,0.00,WeatherDisplay:10.37,2013-07-03 07:55:00,
2013-07-03 03:01:00,71.6,52.0,29.98,North,352,3.5,3.5,50,0.00,CLR,,0.00,WeatherDisplay:10.37,2013-07-03 08:01:00,
2013-07-03 03:07:00,72.4,52.2,29.98,North,8,5.8,5.8,49,0.00,CLR,,0.00,WeatherDisplay:10.37,2013-07-03 08:07:00,
2013-07-03 03:08:00,72.6,52.3,29.98,NW,326,4.6,4.6,49,0.00,CLR,,0.00,WeatherDisplay:10.37,2013-07-03 08:08:00,
2013-07-03 03:09:00,72.6,52.3,29.98,ENE,76,5.8,5.8,49,0.00,CLR,,0.00,WeatherDisplay:10.37,2013-07-03 08:09:00,
2013-07-03 03:15:00,72.7,52.4,29.98,NNE,25,3.5,3.5,49,0.00,CLR,,0.00,WeatherDisplay:10.37,2013-07-03 08:15:00,
2013-07-03 03:16:00,72.6,52.3,29.98,NNE,19,6.9,6.9,49,0.00,CLR,,0.00,WeatherDisplay:10.37,2013-07-03 08:16:00,
2013-07-03 03:18:00,72.5,52.8,29.98,ESE,112,3.5,3.5,50,0.00,CLR,,0.00,WeatherDisplay:10.37,2013-07-03 08:18:00,
2013-07-03 03:24:00,72.1,53.0,29.98,North,9,3.5,3.5,51,0.00,CLR,,0.00,WeatherDisplay:10.37,2013-07-03 08:24:00,
2013-07-03 03:29:00,72.0,52.9,29.98,North,5,2.3,2.3,51,0.00,CLR,,0.00,WeatherDisplay:10.37,2013-07-03 08:29:00,
2013-07-03 03:34:00,72.0,52.3,29.98,NE,39,5.8,5.8,50,0.00,CLR,,0.00,WeatherDisplay:10.37,2013-07-03 08:34:00,
2013-07-03 03:39:00,72.2,52.0,29.98,NE,37,6.9,6.9,49,0.00,CLR,,0.00,WeatherDisplay:10.37,2013-07-03 08:39:00,
2013-07-03 03:44:00,72.4,52.2,29.97,ENE,65,8.1,8.1,49,0.00,CLR,,0.00,WeatherDisplay:10.37,2013-07-03 08:44:00,
2013-07-03 03:45:00,72.4,52.2,29.97,NE,34,3.5,3.5,49,0.00,CLR,,0.00,WeatherDisplay:10.37,2013-07-03 08:45:00,
2013-07-03 03:50:00,72.4,52.7,29.97,NNE,13,5.8,5.8,50,0.00,CLR,,0.00,WeatherDisplay:10.37,2013-07-03 08:50:00,
2013-07-03 03:55:00,72.2,52.5,29.97,ENE,75,5.8,5.8,50,0.00,CLR,,0.00,WeatherDisplay:10.37,2013-07-03 08:55:00,
2013-07-03 03:56:00,72.2,52.5,29.97,East,82,5.8,5.8,50,0.00,CLR,,0.00,WeatherDisplay:10.37,2013-07-03 08:56:00,
2013-07-03 04:01:00,71.9,52.8,29.97,WNW,283,3.5,3.5,51,0.00,CLR,,0.00,WeatherDisplay:10.37,2013-07-03 09:01:00,
2013-07-03 04:06:00,71.4,52.9,29.97,North,349,2.3,2.3,52,0.00,CLR,,0.00,WeatherDisplay:10.37,2013-07-03 09:06:00,
2013-07-03 04:11:00,71.1,52.6,29.97,NNE,25,3.5,3.5,52,0.00,CLR,,0.00,WeatherDisplay:10.37,2013-07-03 09:11:00,
2013-07-03 04:16:00,70.9,52.9,29.98,NE,45,1.1,1.1,53,0.00,CLR,,0.00,WeatherDisplay:10.37,2013-07-03 09:16:00,
2013-07-03 04:22:00,70.6,52.6,29.97,NE,49,2.3,2.3,53,0.00,CLR,,0.00,WeatherDisplay:10.37,2013-07-03 09:22:00,
2013-07-03 04:27:00,70.4,53.0,29.98,NE,41,1.1,1.1,54,0.00,CLR,,0.00,WeatherDisplay:10.37,2013-07-03 09:27:00,
2013-07-03 04:32:00,70.2,52.8,29.98,NE,47,1.1,1.1,54,0.00,CLR,,0.00,WeatherDisplay:10.37,2013-07-03 09:32:00,
2013-07-03 04:37:00,70.1,53.2,29.98,NE,47,3.5,3.5,55,0.00,CLR,,0.00,WeatherDisplay:10.37,2013-07-03 09:37:00,
2013-07-03 04:42:00,70.0,53.1,29.98,North,349,3.5,3.5,55,0.00,CLR,,0.00,WeatherDisplay:10.37,2013-07-03 09:42:00,
2013-07-03 04:47:00,70.0,53.1,29.98,ENE,67,2.3,2.3,55,0.00,CLR,,0.00,WeatherDisplay:10.37,2013-07-03 09:47:00,
2013-07-03 04:49:00,70.0,53.1,29.98,NE,41,2.3,2.3,55,0.00,CLR,,0.00,WeatherDisplay:10.37,2013-07-03 09:49:00,
2013-07-03 04:50:00,70.0,53.1,29.98,NE,34,1.1,1.1,55,0.00,CLR,,0.00,WeatherDisplay:10.37,2013-07-03 09:50:00,
2013-07-03 04:55:00,70.1,53.2,29.97,NNE,25,3.5,3.5,55,0.00,CLR,,0.00,WeatherDisplay:10.37,2013-07-03 09:55:00,
2013-07-03 05:00:00,70.2,52.8,29.97,NNE,15,4.6,4.6,54,0.00,CLR,,0.00,WeatherDisplay:10.37,2013-07-03 10:00:00,
2013-07-03 05:04:00,70.3,52.9,29.97,NNE,33,4.6,4.6,54,0.00,CLR,,0.00,WeatherDisplay:10.37,2013-07-03 10:04:00,
2013-07-03 05:07:00,70.3,52.9,29.97,NNW,333,3.5,3.5,54,0.00,CLR,,0.00,WeatherDisplay:10.37,2013-07-03 10:07:00,
2013-07-03 05:13:00,70.2,53.3,29.97,NE,37,2.3,2.3,55,0.00,CLR,,0.00,WeatherDisplay:10.37,2013-07-03 10:13:00,
2013-07-03 05:19:00,70.1,53.2,29.97,NNE,12,3.5,3.5,55,0.00,CLR,,0.00,WeatherDisplay:10.37,2013-07-03 10:19:00,
2013-07-03 05:24:00,70.0,53.1,29.97,ENE,60,2.3,2.3,55,0.00,CLR,,0.00,WeatherDisplay:10.37,2013-07-03 10:24:00,
2013-07-03 05:30:00,70.0,53.1,29.97,NE,37,3.5,3.5,55,0.00,CLR,,0.00,WeatherDisplay:10.37,2013-07-03 10:30:00,
2013-07-03 05:32:00,69.9,53.0,29.97,NE,37,2.3,2.3,55,0.00,CLR,,0.00,WeatherDisplay:10.37,2013-07-03 10:32:00,
2013-07-03 05:38:00,69.9,53.5,29.97,North,9,2.3,2.3,56,0.00,CLR,,0.00,WeatherDisplay:10.37,2013-07-03 10:38:00,
2013-07-03 05:43:00,69.6,53.2,29.97,NE,51,3.5,3.5,56,0.00,CLR,,0.00,WeatherDisplay:10.37,2013-07-03 10:43:00,
2013-07-03 05:49:00,69.5,53.6,29.97,NNE,16,3.5,3.5,57,0.00,CLR,,0.00,WeatherDisplay:10.37,2013-07-03 10:49:00,
2013-07-03 05:54:00,69.3,53.4,29.97,North,349,2.3,2.3,57,0.00,CLR,,0.00,WeatherDisplay:10.37,2013-07-03 10:54:00,
2013-07-03 05:55:00,69.3,53.4,29.97,North,360,3.5,3.5,57,0.00,CLR,,0.00,WeatherDisplay:10.37,2013-07-03 10:55:00,
2013-07-03 05:57:00,69.1,53.7,29.97,WNW,294,2.3,2.3,58,0.00,CLR,,0.00,WeatherDisplay:10.37,2013-07-03 10:57:00,
2013-07-03 06:02:00,68.9,53.5,29.97,North,5,3.5,3.5,58,0.00,CLR,,0.00,WeatherDisplay:10.37,2013-07-03 11:02:00,
2013-07-03 06:08:00,68.8,53.9,29.97,NNE,25,2.3,2.3,59,0.00,CLR,,0.00,WeatherDisplay:10.37,2013-07-03 11:08:00,
2013-07-03 06:10:00,68.8,53.9,29.97,NE,43,2.3,2.3,59,0.00,CLR,,0.00,WeatherDisplay:10.37,2013-07-03 11:10:00,
2013-07-03 06:15:00,68.8,53.9,29.97,NE,39,2.3,2.3,59,0.00,CLR,,0.00,WeatherDisplay:10.37,2013-07-03 11:15:00,
2013-07-03 06:20:00,68.9,54.0,29.97,NE,34,2.3,2.3,59,0.00,CLR,,0.00,WeatherDisplay:10.37,2013-07-03 11:20:00,
2013-07-03 06:24:00,68.9,54.0,29.97,NNW,342,2.3,2.3,59,0.00,CLR,,0.00,WeatherDisplay:10.37,2013-07-03 11:24:00,
2013-07-03 06:25:00,68.8,53.9,29.97,NNW,343,1.1,1.1,59,0.00,CLR,,0.00,WeatherDisplay:10.37,2013-07-03 11:25:00,
2013-07-03 06:30:00,68.8,53.9,29.97,NNW,345,1.1,0.0,59,0.00,CLR,,0.00,WeatherDisplay:10.37,2013-07-03 11:30:00,
2013-07-03 06:35:00,68.7,53.8,29.97,NNE,15,0.0,0.0,59,0.00,CLR,,0.00,WeatherDisplay:10.37,2013-07-03 11:35:00,
2013-07-03 06:40:00,68.5,54.1,29.97,NNW,334,1.1,0.0,60,0.00,CLR,,0.00,WeatherDisplay:10.37,2013-07-03 11:40:00,
2013-07-03 06:45:00,68.1,54.1,29.97,NW,326,0.0,0.0,61,0.00,CLR,,0.00,WeatherDisplay:10.37,2013-07-03 11:45:00,
2013-07-03 06:50:00,68.0,54.0,29.97,North,356,1.1,0.0,61,0.00,CLR,,0.00,WeatherDisplay:10.37,2013-07-03 11:50:00,
2013-07-03 06:55:00,67.9,54.4,29.98,North,4,0.0,0.0,62,0.00,CLR,,0.00,WeatherDisplay:10.37,2013-07-03 11:55:00,
2013-07-03 06:59:00,67.9,54.4,29.97,NW,326,0.0,0.0,62,0.00,CLR,,0.00,WeatherDisplay:10.37,2013-07-03 11:59:00,
2013-07-03 07:02:00,67.9,54.4,29.97,North,4,1.1,1.1,62,0.00,CLR,,0.00,WeatherDisplay:10.37,2013-07-03 12:02:00,
2013-07-03 07:07:00,68.2,54.7,29.97,North,359,0.0,0.0,62,0.00,CLR,,0.00,WeatherDisplay:10.37,2013-07-03 12:07:00,
2013-07-03 07:12:00,68.6,54.6,29.97,NNW,330,0.0,0.0,61,0.00,CLR,,0.00,WeatherDisplay:10.37,2013-07-03 12:12:00,
2013-07-03 07:16:00,69.0,55.0,29.97,NE,43,0.0,0.0,61,0.00,CLR,,0.00,WeatherDisplay:10.37,2013-07-03 12:16:00,
2013-07-03 07:20:00,69.5,55.5,29.97,NNE,22,1.1,1.1,61,0.00,CLR,,0.00,WeatherDisplay:10.37,2013-07-03 12:20:00,
2013-07-03 07:25:00,70.1,56.5,29.98,ENE,60,0.0,0.0,62,0.00,CLR,,0.00,WeatherDisplay:10.37,2013-07-03 12:25:00,
2013-07-03 07:30:00,70.8,57.1,29.98,ENE,60,0.0,0.0,62,0.00,CLR,,0.00,WeatherDisplay:10.37,2013-07-03 12:30:00,
2013-07-03 07:35:00,70.8,57.1,29.98,ENE,59,0.0,0.0,62,0.00,CLR,,0.00,WeatherDisplay:10.37,2013-07-03 12:35:00,
2013-07-03 07:41:00,70.9,58.1,29.98,ENE,67,0.0,0.0,64,0.00,CLR,,0.00,WeatherDisplay:10.37,2013-07-03 12:41:00,
2013-07-03 07:46:00,71.0,58.2,29.99,ESE,110,0.0,0.0,64,0.00,CLR,,0.00,WeatherDisplay:10.37,2013-07-03 12:46:00,
2013-07-03 07:48:00,70.9,57.7,29.99,ESE,113,0.0,0.0,63,0.00,CLR,,0.00,WeatherDisplay:10.37,2013-07-03 12:48:00,
2013-07-03 07:53:00,70.7,57.5,29.99,NE,48,0.0,0.0,63,0.00,CLR,,0.00,WeatherDisplay:10.37,2013-07-03 12:53:00,
2013-07-03 07:58:00,71.1,57.9,29.99,NE,36,0.0,0.0,63,0.00,CLR,,0.00,WeatherDisplay:10.37,2013-07-03 12:58:00,
2013-07-03 08:04:00,72.0,57.4,29.99,NNE,22,1.1,1.1,60,0.00,CLR,,0.00,WeatherDisplay:10.37,2013-07-03 13:04:00,
2013-07-03 08:09:00,72.7,57.1,29.99,NNE,26,1.1,1.1,58,0.00,CLR,,0.00,WeatherDisplay:10.37,2013-07-03 13:09:00,
2013-07-03 08:14:00,73.0,56.9,29.99,ENE,70,3.5,3.5,57,0.00,CLR,,0.00,WeatherDisplay:10.37,2013-07-03 13:14:00,
2013-07-03 08:20:00,73.5,56.8,30.00,NE,54,5.8,5.8,56,0.00,CLR,,0.00,WeatherDisplay:10.37,2013-07-03 13:20:00,
2013-07-03 08:25:00,73.9,56.7,30.00,NNE,33,4.6,4.6,55,0.00,CLR,,0.00,WeatherDisplay:10.37,2013-07-03 13:25:00,
2013-07-03 08:30:00,74.4,57.2,30.00,NE,47,4.6,4.6,55,0.00,CLR,,0.00,WeatherDisplay:10.37,2013-07-03 13:30:00,
2013-07-03 08:35:00,74.8,57.5,30.00,ENE,64,3.5,3.5,55,0.00,CLR,,0.00,WeatherDisplay:10.37,2013-07-03 13:35:00,
2013-07-03 08:37:00,75.0,57.2,30.00,NE,46,3.5,3.5,54,0.00,CLR,,0.00,WeatherDisplay:10.37,2013-07-03 13:37:00,
2013-07-03 08:42:00,75.5,57.7,30.00,NE,54,5.8,5.8,54,0.00,CLR,,0.00,WeatherDisplay:10.37,2013-07-03 13:42:00,
2013-07-03 08:47:00,76.2,58.3,30.00,ENE,65,3.5,3.6,54,0.00,CLR,,0.00,WeatherDisplay:10.37,2013-07-03 13:47:00,
2013-07-03 08:53:00,76.6,58.2,30.00,ENE,59,4.6,4.6,53,0.00,CLR,,0.00,WeatherDisplay:10.37,2013-07-03 13:53:00,
2013-07-03 08:58:00,77.4,58.4,30.00,ENE,58,3.5,3.5,52,0.00,CLR,,0.00,WeatherDisplay:10.37,2013-07-03 13:58:00,
2013-07-03 09:03:00,78.1,58.5,30.00,NE,54,5.8,5.8,51,0.00,CLR,,0.00,WeatherDisplay:10.37,2013-07-03 14:03:00,
2013-07-03 09:06:00,78.3,58.7,30.00,NE,47,4.6,4.6,51,0.00,CLR,,0.00,WeatherDisplay:10.37,2013-07-03 14:06:00,
2013-07-03 09:09:00,78.8,59.1,30.00,NE,44,4.6,5.2,51,0.00,CLR,,0.00,WeatherDisplay:10.37,2013-07-03 14:09:00,
2013-07-03 09:15:00,79.6,59.3,30.00,North,353,4.6,4.6,50,0.00,CLR,,0.00,WeatherDisplay:10.37,2013-07-03 14:15:00,
2013-07-03 09:20:00,80.1,58.0,30.00,NE,55,8.1,8.1,47,0.00,CLR,,0.00,WeatherDisplay:10.37,2013-07-03 14:20:00,
2013-07-03 09:25:00,80.3,58.2,30.00,East,96,4.6,4.6,47,0.00,CLR,,0.00,WeatherDisplay:10.37,2013-07-03 14:25:00,
2013-07-03 09:30:00,81.0,58.9,30.00,ENE,57,6.9,6.9,47,0.00,CLR,,0.00,WeatherDisplay:10.37,2013-07-03 14:30:00,
2013-07-03 09:31:00,81.0,58.3,30.00,NE,56,6.9,6.9,46,0.00,CLR,,0.00,WeatherDisplay:10.37,2013-07-03 14:31:00,
2013-07-03 09:36:00,81.2,58.5,30.00,NE,40,6.9,6.9,46,0.00,CLR,,0.00,WeatherDisplay:10.37,2013-07-03 14:36:00,
2013-07-03 09:41:00,81.8,59.6,30.00,ENE,72,6.0,6.0,47,0.00,CLR,,0.00,WeatherDisplay:10.37,2013-07-03 14:41:00,
2013-07-03 09:46:00,82.0,58.6,30.00,NE,46,5.8,5.8,45,0.00,CLR,,0.00,WeatherDisplay:10.37,2013-07-03 14:46:00,
2013-07-03 09:51:00,82.5,59.0,30.00,East,93,4.6,4.6,45,0.00,CLR,,0.00,WeatherDisplay:10.37,2013-07-03 14:51:00,
2013-07-03 09:52:00,82.5,59.6,30.00,ENE,70,4.6,4.6,46,0.00,CLR,,0.00,WeatherDisplay:10.37,2013-07-03 14:52:00,
2013-07-03 09:57:00,83.1,58.9,30.00,ENE,72,9.2,9.2,44,0.00,CLR,,0.00,WeatherDisplay:10.37,2013-07-03 14:57:00,
2013-07-03 09:59:00,83.3,59.7,30.00,East,84,3.5,3.5,45,0.00,CLR,,0.00,WeatherDisplay:10.37,2013-07-03 14:59:00,
2013-07-03 10:03:00,83.7,59.5,30.00,NE,54,5.8,5.8,44,0.00,CLR,,0.00,WeatherDisplay:10.37,2013-07-03 15:03:00,
2013-07-03 10:08:00,83.7,60.1,30.00,ENE,65,3.5,3.5,45,0.00,CLR,,0.00,WeatherDisplay:10.37,2013-07-03 15:08:00,
2013-07-03 10:13:00,84.6,60.3,30.00,ENE,77,4.0,4.0,44,0.00,CLR,,0.00,WeatherDisplay:10.37,2013-07-03 15:13:00,
2013-07-03 10:15:00,84.7,59.1,30.00,East,94,4.0,4.0,42,0.00,CLR,,0.00,WeatherDisplay:10.37,2013-07-03 15:15:00,
2013-07-03 10:22:00,85.4,59.7,30.00,ENE,68,5.8,5.8,42,0.00,CLR,,0.00,WeatherDisplay:10.37,2013-07-03 15:22:00,
2013-07-03 10:27:00,85.5,58.4,30.00,ESE,110,3.5,3.5,40,0.00,CLR,,0.00,WeatherDisplay:10.37,2013-07-03 15:27:00,
2013-07-03 10:29:00,85.6,58.5,30.00,ENE,64,6.9,6.9,40,0.00,CLR,,0.00,WeatherDisplay:10.37,2013-07-03 15:29:00,
2013-07-03 10:35:00,86.0,58.2,30.00,ENE,67,6.9,6.9,39,0.00,CLR,,0.00,WeatherDisplay:10.37,2013-07-03 15:35:00,
2013-07-03 10:40:00,86.1,58.2,30.00,East,82,5.8,5.8,39,0.00,CLR,,0.00,WeatherDisplay:10.37,2013-07-03 15:40:00,
2013-07-03 10:41:00,86.0,58.9,30.00,East,84,4.6,4.6,40,0.00,CLR,,0.00,WeatherDisplay:10.37,2013-07-03 15:41:00,
2013-07-03 10:47:00,86.2,59.0,30.00,ENE,72,3.5,3.5,40,0.00,CLR,,0.00,WeatherDisplay:10.37,2013-07-03 15:47:00,
2013-07-03 10:52:00,87.3,57.8,30.00,ENE,60,5.8,5.8,37,0.00,CLR,,0.00,WeatherDisplay:10.37,2013-07-03 15:52:00,
2013-07-03 10:54:00,87.3,57.1,30.00,NNE,22,6.9,6.9,36,0.00,CLR,,0.00,WeatherDisplay:10.37,2013-07-03 15:54:00,
2013-07-03 10:59:00,88.1,57.0,30.00,NNE,22,3.5,3.5,35,0.00,CLR,,0.00,WeatherDisplay:10.37,2013-07-03 15:59:00,
2013-07-03 11:04:00,88.6,56.6,29.99,ENE,64,4.0,4.0,34,0.00,CLR,,0.00,WeatherDisplay:10.37,2013-07-03 16:04:00,
2013-07-03 11:10:00,88.6,55.0,29.99,East,93,9.2,9.2,32,0.00,CLR,,0.00,WeatherDisplay:10.37,2013-07-03 16:10:00,
2013-07-03 11:15:00,88.4,52.1,29.99,East,96,3.5,3.5,29,0.00,CLR,,0.00,WeatherDisplay:10.37,2013-07-03 16:15:00,
2013-07-03 11:21:00,89.5,51.1,29.99,SE,143,2.3,2.3,27,0.00,CLR,,0.00,WeatherDisplay:10.37,2013-07-03 16:21:00,
2013-07-03 11:26:00,90.2,52.7,29.99,NE,40,5.8,5.8,28,0.00,CLR,,0.00,WeatherDisplay:10.37,2013-07-03 16:26:00,
2013-07-03 11:31:00,90.2,52.7,29.99,ENE,68,5.8,5.8,28,0.00,CLR,,0.00,WeatherDisplay:10.37,2013-07-03 16:31:00,
2013-07-03 11:37:00,89.9,51.4,29.99,East,80,3.5,3.5,27,0.00,CLR,,0.00,WeatherDisplay:10.37,2013-07-03 16:37:00,
2013-07-03 11:42:00,90.0,51.5,29.99,SSE,166,1.1,1.1,27,0.00,CLR,,0.00,WeatherDisplay:10.37,2013-07-03 16:42:00,
2013-07-03 11:47:00,90.6,48.9,29.99,ESE,109,8.1,8.1,24,0.00,CLR,,0.00,WeatherDisplay:10.37,2013-07-03 16:47:00,
2013-07-03 11:54:00,91.1,52.5,29.98,East,98,1.1,1.1,27,0.00,CLR,,0.00,WeatherDisplay:10.37,2013-07-03 16:54:00,
2013-07-03 11:59:00,91.3,48.3,29.98,NE,44,8.1,8.1,23,0.00,CLR,,0.00,WeatherDisplay:10.37,2013-07-03 16:59:00,
2013-07-03 12:04:00,91.3,47.1,29.98,NE,34,8.1,8.1,22,0.00,CLR,,0.00,WeatherDisplay:10.37,2013-07-03 17:04:00,
2013-07-03 12:09:00,91.3,43.3,29.98,ENE,78,8.1,8.1,19,0.00,CLR,,0.00,WeatherDisplay:10.37,2013-07-03 17:09:00,
2013-07-03 12:14:00,90.6,44.0,29.98,WNW,285,6.9,0.0,20,0.00,CLR,,0.00,WeatherDisplay:10.37,2013-07-03 17:14:00,
2013-07-03 12:20:00,91.5,43.4,29.98,NNE,16,11.5,11.5,19,0.00,CLR,,0.00,WeatherDisplay:10.37,2013-07-03 17:20:00,
2013-07-03 12:25:00,91.5,46.1,29.98,WNW,302,3.5,3.5,21,0.00,CLR,,0.00,WeatherDisplay:10.37,2013-07-03 17:25:00,
2013-07-03 12:30:00,91.2,44.5,29.98,NNE,30,4.6,4.6,20,0.00,CLR,,0.00,WeatherDisplay:10.37,2013-07-03 17:30:00,
2013-07-03 12:35:00,91.9,45.1,29.98,NW,308,5.8,5.8,20,0.00,CLR,,0.00,WeatherDisplay:10.37,2013-07-03 17:35:00,
2013-07-03 12:40:00,92.1,46.6,29.97,North,356,4.6,4.6,21,0.00,CLR,,0.00,WeatherDisplay:10.37,2013-07-03 17:40:00,
2013-07-03 12:45:00,91.8,45.0,29.97,NE,50,12.7,12.7,20,0.00,CLR,,0.00,WeatherDisplay:10.37,2013-07-03 17:45:00,
2013-07-03 12:50:00,91.5,48.5,29.97,NW,312,6.9,6.9,23,0.00,CLR,,0.00,WeatherDisplay:10.37,2013-07-03 17:50:00,
2013-07-03 12:56:00,92.0,46.5,29.97,NE,46,6.0,6.0,21,0.00,CLR,,0.00,WeatherDisplay:10.37,2013-07-03 17:56:00,
2013-07-03 13:01:00,92.0,46.5,29.97,WNW,290,5.8,5.8,21,0.00,CLR,,0.00,WeatherDisplay:10.37,2013-07-03 18:01:00,
2013-07-03 13:06:00,92.0,45.2,29.96,North,351,1.1,1.1,20,0.00,CLR,,0.00,WeatherDisplay:10.37,2013-07-03 18:06:00,
2013-07-03 13:11:00,92.7,45.8,29.96,WNW,288,3.5,3.5,20,0.00,CLR,,0.00,WeatherDisplay:10.37,2013-07-03 18:11:00,
2013-07-03 13:16:00,92.5,46.9,29.96,NE,44,3.5,3.5,21,0.00,CLR,,0.00,WeatherDisplay:10.37,2013-07-03 18:16:00,
2013-07-03 13:21:00,92.6,47.0,29.95,ENE,72,2.3,2.3,21,0.00,CLR,,0.00,WeatherDisplay:10.37,2013-07-03 18:21:00,
2013-07-03 13:26:00,93.2,46.2,29.95,NNW,331,3.5,3.5,20,0.00,CLR,,0.00,WeatherDisplay:10.37,2013-07-03 18:26:00,
2013-07-03 13:31:00,93.2,46.2,29.95,NE,53,6.0,6.0,20,0.00,CLR,,0.00,WeatherDisplay:10.37,2013-07-03 18:31:00,
2013-07-03 13:36:00,93.4,50.1,29.95,WNW,286,4.6,4.6,23,0.00,CLR,,0.00,WeatherDisplay:10.37,2013-07-03 18:36:00,
2013-07-03 13:43:00,93.3,47.5,29.95,ESE,116,3.5,3.5,21,0.00,CLR,,0.00,WeatherDisplay:10.37,2013-07-03 18:43:00,
2013-07-03 13:48:00,93.3,46.2,29.95,NW,317,4.6,4.6,20,0.00,CLR,,0.00,WeatherDisplay:10.37,2013-07-03 18:48:00,
2013-07-03 13:53:00,93.4,46.3,29.95,ENE,78,12.7,12.7,20,0.00,CLR,,0.00,WeatherDisplay:10.37,2013-07-03 18:53:00,
2013-07-03 13:58:00,92.8,44.5,29.94,North,358,9.2,9.2,19,0.00,CLR,,0.00,WeatherDisplay:10.37,2013-07-03 18:58:00,
2013-07-03 14:03:00,92.5,46.9,29.94,NNW,328,3.5,3.5,21,0.00,CLR,,0.00,WeatherDisplay:10.37,2013-07-03 19:03:00,
2013-07-03 14:08:00,92.4,44.2,29.94,SSE,153,0.0,0.1,19,0.00,CLR,,0.00,WeatherDisplay:10.37,2013-07-03 19:08:00,
2013-07-03 14:13:00,93.9,48.0,29.93,NNW,339,3.5,3.5,21,0.00,CLR,,0.00,WeatherDisplay:10.37,2013-07-03 19:13:00,
2013-07-03 14:18:00,94.0,46.8,29.93,SW,232,3.5,3.5,20,0.00,CLR,,0.00,WeatherDisplay:10.37,2013-07-03 19:18:00,
2013-07-03 14:23:00,94.0,45.5,29.93,ENE,57,4.0,4.0,19,0.00,CLR,,0.00,WeatherDisplay:10.37,2013-07-03 19:23:00,
2013-07-03 14:28:00,93.9,46.7,29.93,WNW,302,5.8,5.8,20,0.00,CLR,,0.00,WeatherDisplay:10.37,2013-07-03 19:28:00,
2013-07-03 14:33:00,94.4,45.8,29.93,NW,313,5.8,5.8,19,0.00,CLR,,0.00,WeatherDisplay:10.37,2013-07-03 19:33:00,
2013-07-03 14:38:00,93.8,49.2,29.92,SW,222,0.0,0.0,22,0.00,CLR,,0.00,WeatherDisplay:10.37,2013-07-03 19:38:00,
2013-07-03 14:43:00,94.1,46.9,29.93,NE,42,6.9,6.9,20,0.00,CLR,,0.00,WeatherDisplay:10.37,2013-07-03 19:43:00,
2013-07-03 14:48:00,93.6,46.5,29.92,ENE,71,9.2,9.2,20,0.00,CLR,,0.00,WeatherDisplay:10.37,2013-07-03 19:48:00,
2013-07-03 14:54:00,93.4,45.0,29.92,ESE,111,11.5,11.5,19,0.00,CLR,,0.00,WeatherDisplay:10.37,2013-07-03 19:54:00,
2013-07-03 14:59:00,93.6,46.5,29.92,SSE,156,9.2,9.2,20,0.00,CLR,,0.00,WeatherDisplay:10.37,2013-07-03 19:59:00,
2013-07-03 15:04:00,93.6,46.5,29.92,East,96,5.8,5.8,20,0.00,CLR,,0.00,WeatherDisplay:10.37,2013-07-03 20:04:00,
2013-07-03 15:10:00,93.2,46.2,29.92,NE,51,3.5,3.5,20,0.00,CLR,,0.00,WeatherDisplay:10.37,2013-07-03 20:10:00,
2013-07-03 15:15:00,93.0,46.0,29.91,ENE,67,11.5,11.5,20,0.00,CLR,,0.00,WeatherDisplay:10.37,2013-07-03 20:15:00,
2013-07-03 15:20:00,93.0,47.3,29.91,ENE,65,5.8,5.8,21,0.00,CLR,,0.00,WeatherDisplay:10.37,2013-07-03 20:20:00,
2013-07-03 15:25:00,93.6,49.0,29.91,NE,54,4.6,4.6,22,0.00,CLR,,0.00,WeatherDisplay:10.37,2013-07-03 20:25:00,
2013-07-03 15:31:00,93.8,46.7,29.91,ENE,78,8.1,8.1,20,0.00,CLR,,0.00,WeatherDisplay:10.37,2013-07-03 20:31:00,
2013-07-03 15:36:00,93.4,46.3,29.91,SW,225,3.5,3.5,20,0.00,CLR,,0.00,WeatherDisplay:10.37,2013-07-03 20:36:00,
2013-07-03 15:41:00,94.3,47.1,29.91,East,92,4.0,4.0,20,0.00,CLR,,0.00,WeatherDisplay:10.37,2013-07-03 20:41:00,
2013-07-03 15:46:00,94.0,45.5,29.90,ENE,69,3.5,3.5,19,0.00,CLR,,0.00,WeatherDisplay:10.37,2013-07-03 20:46:00,
2013-07-03 15:51:00,93.8,45.3,29.90,WSW,257,4.6,4.6,19,0.00,CLR,,0.00,WeatherDisplay:10.37,2013-07-03 20:51:00,
2013-07-03 15:57:00,94.3,49.6,29.90,North,5,3.5,3.5,22,0.00,CLR,,0.00,WeatherDisplay:10.37,2013-07-03 20:57:00,
2013-07-03 16:02:00,94.7,47.4,29.90,NE,39,5.8,5.8,20,0.00,CLR,,0.00,WeatherDisplay:10.37,2013-07-03 21:02:00,
2013-07-03 16:07:00,94.8,46.1,29.90,NW,320,4.6,4.6,19,0.00,CLR,,0.00,WeatherDisplay:10.37,2013-07-03 21:07:00,
2013-07-03 16:12:00,94.8,48.8,29.90,WSW,249,3.5,3.5,21,0.00,CLR,,0.00,WeatherDisplay:10.37,2013-07-03 21:12:00,
2013-07-03 16:17:00,95.0,46.3,29.90,SE,134,3.5,3.5,19,0.00,CLR,,0.00,WeatherDisplay:10.37,2013-07-03 21:17:00,
2013-07-03 16:23:00,94.5,45.9,29.89,ENE,64,5.0,5.0,19,0.00,CLR,,0.00,WeatherDisplay:10.37,2013-07-03 21:23:00,
2013-07-03 16:28:00,94.3,45.7,29.89,ENE,75,13.8,13.8,19,0.00,CLR,,0.00,WeatherDisplay:10.37,2013-07-03 21:28:00,
2013-07-03 16:33:00,93.8,45.3,29.89,ENE,57,10.4,10.4,19,0.00,CLR,,0.00,WeatherDisplay:10.37,2013-07-03 21:33:00,
2013-07-03 16:38:00,94.1,45.5,29.89,NE,47,12.7,12.7,19,0.00,CLR,,0.00,WeatherDisplay:10.37,2013-07-03 21:38:00,
2013-07-03 16:44:00,93.9,45.4,29.88,East,79,6.9,6.9,19,0.00,CLR,,0.00,WeatherDisplay:10.37,2013-07-03 21:44:00,
2013-07-03 16:49:00,93.4,46.3,29.88,ENE,57,4.6,4.6,20,0.00,CLR,,0.00,WeatherDisplay:10.37,2013-07-03 21:49:00,
2013-07-03 16:54:00,93.5,45.1,29.88,North,1,3.5,3.5,19,0.00,CLR,,0.00,WeatherDisplay:10.37,2013-07-03 21:54:00,
2013-07-03 16:59:00,94.1,45.5,29.88,WSW,252,3.5,3.5,19,0.00,CLR,,0.00,WeatherDisplay:10.37,2013-07-03 21:59:00,
2013-07-03 17:04:00,94.8,46.1,29.88,East,98,6.9,6.9,19,0.00,CLR,,0.00,WeatherDisplay:10.37,2013-07-03 22:04:00,
2013-07-03 17:09:00,94.5,45.9,29.87,ENE,60,8.1,8.1,19,0.00,CLR,,0.00,WeatherDisplay:10.37,2013-07-03 22:09:00,
2013-07-03 17:14:00,94.0,45.5,29.87,South,181,1.1,1.1,19,0.00,CLR,,0.00,WeatherDisplay:10.37,2013-07-03 22:14:00,
2013-07-03 17:19:00,94.5,47.2,29.87,SW,232,1.1,1.1,20,0.00,CLR,,0.00,WeatherDisplay:10.37,2013-07-03 22:19:00,
2013-07-03 17:24:00,95.2,45.0,29.86,East,80,2.3,2.3,18,0.00,CLR,,0.00,WeatherDisplay:10.37,2013-07-03 22:24:00,
2013-07-03 17:29:00,94.8,46.1,29.86,East,89,3.5,3.5,19,0.00,CLR,,0.00,WeatherDisplay:10.37,2013-07-03 22:29:00,
2013-07-03 17:34:00,95.1,46.4,29.87,NE,34,2.3,2.4,19,0.00,CLR,,0.00,WeatherDisplay:10.37,2013-07-03 22:34:00,
2013-07-03 17:40:00,94.6,46.0,29.86,ENE,76,5.8,5.8,19,0.00,CLR,,0.00,WeatherDisplay:10.37,2013-07-03 22:40:00,
2013-07-03 17:45:00,94.2,47.0,29.86,SE,125,1.1,0.0,20,0.00,CLR,,0.00,WeatherDisplay:10.37,2013-07-03 22:45:00,
2013-07-03 17:51:00,95.0,46.3,29.86,NNW,331,3.0,3.0,19,0.00,CLR,,0.00,WeatherDisplay:10.37,2013-07-03 22:51:00,
2013-07-03 17:56:00,94.8,46.1,29.86,NNW,342,1.1,1.1,19,0.00,CLR,,0.00,WeatherDisplay:10.37,2013-07-03 22:56:00,
2013-07-03 18:02:00,94.8,46.1,29.86,WNW,285,2.3,2.3,19,0.00,CLR,,0.00,WeatherDisplay:10.37,2013-07-03 23:02:00,
2013-07-03 18:07:00,94.7,46.0,29.86,West,260,3.5,3.5,19,0.00,CLR,,0.00,WeatherDisplay:10.37,2013-07-03 23:07:00,
2013-07-03 18:12:00,95.0,47.6,29.85,NNE,19,2.3,2.3,20,0.00,CLR,,0.00,WeatherDisplay:10.37,2013-07-03 23:12:00,
2013-07-03 18:18:00,94.7,47.4,29.85,NE,49,3.5,3.5,20,0.00,CLR,,0.00,WeatherDisplay:10.37,2013-07-03 23:18:00,
2013-07-03 18:23:00,94.9,47.6,29.85,North,6,3.5,3.5,20,0.00,CLR,,0.00,WeatherDisplay:10.37,2013-07-03 23:23:00,
2013-07-03 18:28:00,94.8,47.5,29.85,NNW,335,3.5,3.5,20,0.00,CLR,,0.00,WeatherDisplay:10.37,2013-07-03 23:28:00,
2013-07-03 18:34:00,94.6,46.0,29.85,North,353,3.5,3.5,19,0.00,CLR,,0.00,WeatherDisplay:10.37,2013-07-03 23:34:00,
2013-07-03 18:40:00,94.6,46.0,29.85,NNE,12,0.0,0.0,19,0.00,CLR,,0.00,WeatherDisplay:10.37,2013-07-03 23:40:00,
2013-07-03 18:45:00,94.8,46.1,29.85,ENE,77,2.3,2.3,19,0.00,CLR,,0.00,WeatherDisplay:10.37,2013-07-03 23:45:00,
2013-07-03 18:50:00,94.5,47.2,29.85,East,87,0.0,0.0,20,0.00,CLR,,0.00,WeatherDisplay:10.37,2013-07-03 23:50:00,
2013-07-03 18:55:00,94.6,47.3,29.85,ENE,72,2.3,2.3,20,0.00,CLR,,0.00,WeatherDisplay:10.37,2013-07-03 23:55:00,
2013-07-03 19:00:00,94.1,48.2,29.85,ENE,68,3.5,3.5,21,0.00,CLR,,0.00,WeatherDisplay:10.37,2013-07-04 00:00:00,
2013-07-03 19:06:00,93.8,46.7,29.85,WNW,286,2.3,2.3,20,0.00,CLR,,0.00,WeatherDisplay:10.37,2013-07-04 00:06:00,
2013-07-03 19:11:00,94.0,46.8,29.85,WNW,288,0.0,0.1,20,0.00,CLR,,0.00,WeatherDisplay:10.37,2013-07-04 00:11:00,
2013-07-03 19:17:00,94.2,47.0,29.85,North,358,1.1,1.1,20,0.00,CLR,,0.00,WeatherDisplay:10.37,2013-07-04 00:17:00,
2013-07-03 19:22:00,93.8,46.7,29.85,NE,50,1.1,0.0,20,0.00,CLR,,0.00,WeatherDisplay:10.37,2013-07-04 00:22:00,
2013-07-03 19:28:00,93.2,48.7,29.85,East,98,3.5,3.5,22,0.00,CLR,,0.00,WeatherDisplay:10.37,2013-07-04 00:28:00,
2013-07-03 19:34:00,92.6,48.2,29.85,East,95,3.5,3.5,22,0.00,CLR,,0.00,WeatherDisplay:10.37,2013-07-04 00:34:00,
2013-07-03 19:39:00,92.4,48.0,29.85,ENE,78,1.0,0.0,22,0.00,CLR,,0.00,WeatherDisplay:10.37,2013-07-04 00:39:00,
2013-07-03 19:44:00,92.1,49.0,29.86,ENE,64,1.1,1.1,23,0.00,CLR,,0.00,WeatherDisplay:10.37,2013-07-04 00:44:00,
2013-07-03 19:50:00,92.0,48.9,29.86,ENE,64,2.3,2.3,23,0.00,CLR,,0.00,WeatherDisplay:10.37,2013-07-04 00:50:00,
2013-07-03 19:55:00,91.6,48.6,29.85,NE,46,2.3,2.3,23,0.00,CLR,,0.00,WeatherDisplay:10.37,2013-07-04 00:55:00,
2013-07-03 20:01:00,91.1,48.1,29.85,NNE,32,2.3,2.3,23,0.00,CLR,,0.00,WeatherDisplay:10.37,2013-07-04 01:01:00,
2013-07-03 20:06:00,90.9,48.0,29.86,NE,44,0.0,0.0,23,0.00,CLR,,0.00,WeatherDisplay:10.37,2013-07-04 01:06:00,
2013-07-03 20:11:00,90.7,48.9,29.86,NNW,333,0.0,0.0,24,0.00,CLR,,0.00,WeatherDisplay:10.37,2013-07-04 01:11:00,
2013-07-03 20:16:00,90.1,49.5,29.86,NNW,333,0.0,0.0,25,0.00,CLR,,0.00,WeatherDisplay:10.37,2013-07-04 01:16:00,
2013-07-03 20:21:00,89.3,48.9,29.86,NNW,333,0.0,0.0,25,0.00,CLR,,0.00,WeatherDisplay:10.37,2013-07-04 01:21:00,
2013-07-03 20:26:00,89.0,49.7,29.85,NE,39,0.0,0.0,26,0.00,CLR,,0.00,WeatherDisplay:10.37,2013-07-04 01:26:00,
2013-07-03 20:31:00,88.7,50.4,29.86,NE,39,0.0,0.0,27,0.00,CLR,,0.00,WeatherDisplay:10.37,2013-07-04 01:31:00,
2013-07-03 20:37:00,88.0,49.8,29.86,NE,34,0.0,0.0,27,0.00,CLR,,0.00,WeatherDisplay:10.37,2013-07-04 01:37:00,
2013-07-03 20:42:00,87.2,49.1,29.86,NE,34,0.0,0.0,27,0.00,CLR,,0.00,WeatherDisplay:10.37,2013-07-04 01:42:00,
2013-07-03 20:47:00,86.6,48.6,29.86,NE,34,0.0,0.0,27,0.00,CLR,,0.00,WeatherDisplay:10.37,2013-07-04 01:47:00,
2013-07-03 20:52:00,86.7,48.7,29.86,NE,35,1.1,1.1,27,0.00,CLR,,0.00,WeatherDisplay:10.37,2013-07-04 01:52:00,
2013-07-03 20:57:00,86.6,49.6,29.86,NE,37,1.1,1.1,28,0.00,CLR,,0.00,WeatherDisplay:10.37,2013-07-04 01:57:00,
2013-07-03 21:03:00,84.6,57.6,29.87,ESE,119,4.6,5.0,40,0.00,CLR,,0.00,WeatherDisplay:10.37,2013-07-04 02:03:00,
2013-07-03 21:08:00,82.7,56.6,29.87,SE,128,8.1,8.1,41,0.00,CLR,,0.00,WeatherDisplay:10.37,2013-07-04 02:08:00,
2013-07-03 21:13:00,83.2,59.6,29.87,ESE,123,8.1,8.1,45,0.00,CLR,,0.00,WeatherDisplay:10.37,2013-07-04 02:13:00,
2013-07-03 21:18:00,84.0,61.0,29.88,ESE,110,15.0,15.0,46,0.00,CLR,,0.00,WeatherDisplay:10.37,2013-07-04 02:18:00,
2013-07-03 21:23:00,84.1,61.7,29.88,ESE,123,9.2,9.2,47,0.00,CLR,,0.00,WeatherDisplay:10.37,2013-07-04 02:23:00,
2013-07-03 21:29:00,83.7,63.1,29.88,SE,126,6.9,6.9,50,0.00,CLR,,0.00,WeatherDisplay:10.37,2013-07-04 02:29:00,
2013-07-03 21:34:00,83.4,63.9,29.88,ESE,106,5.8,5.8,52,0.00,CLR,,0.00,WeatherDisplay:10.37,2013-07-04 02:34:00,
2013-07-03 21:39:00,82.9,64.0,29.88,SE,142,8.1,8.1,53,0.00,CLR,,0.00,WeatherDisplay:10.37,2013-07-04 02:39:00,
2013-07-03 21:45:00,82.6,64.8,29.89,SE,141,5.8,5.8,55,0.00,CLR,,0.00,WeatherDisplay:10.37,2013-07-04 02:45:00,
2013-07-03 21:50:00,82.3,65.0,29.89,ESE,121,6.9,6.9,56,0.00,CLR,,0.00,WeatherDisplay:10.37,2013-07-04 02:50:00,
2013-07-03 21:55:00,82.1,64.8,29.89,SE,126,4.6,4.6,56,0.00,CLR,,0.00,WeatherDisplay:10.37,2013-07-04 02:55:00,
2013-07-03 22:00:00,81.8,65.1,29.89,SE,133,5.8,5.8,57,0.00,CLR,,0.00,WeatherDisplay:10.37,2013-07-04 03:00:00,
2013-07-03 22:05:00,81.4,65.2,29.89,SE,132,4.6,4.6,58,0.00,CLR,,0.00,WeatherDisplay:10.37,2013-07-04 03:05:00,
2013-07-03 22:10:00,81.1,64.9,29.90,ESE,117,4.6,4.6,58,0.00,CLR,,0.00,WeatherDisplay:10.37,2013-07-04 03:10:00,
2013-07-03 22:15:00,80.8,65.1,29.90,ESE,122,6.9,6.9,59,0.00,CLR,,0.00,WeatherDisplay:10.37,2013-07-04 03:15:00,
2013-07-03 22:23:00,80.4,65.2,29.90,ESE,122,4.6,4.6,60,0.00,CLR,,0.00,WeatherDisplay:10.37,2013-07-04 03:23:00,
2013-07-03 22:28:00,80.0,65.3,29.90,East,101,4.6,4.6,61,0.00,CLR,,0.00,WeatherDisplay:10.37,2013-07-04 03:28:00,
2013-07-03 22:33:00,79.7,65.1,29.90,SE,139,3.5,3.5,61,0.00,CLR,,0.00,WeatherDisplay:10.37,2013-07-04 03:33:00,
2013-07-03 22:40:00,79.4,64.8,29.90,SE,132,4.0,4.0,61,0.00,CLR,,0.00,WeatherDisplay:10.37,2013-07-04 03:40:00,
2013-07-03 22:45:00,79.3,65.1,29.90,SE,135,6.9,6.9,62,0.00,CLR,,0.00,WeatherDisplay:10.37,2013-07-04 03:45:00,
2013-07-03 22:50:00,79.2,64.6,29.91,SE,146,5.8,5.8,61,0.00,CLR,,0.00,WeatherDisplay:10.37,2013-07-04 03:50:00,
2013-07-03 22:55:00,79.1,64.5,29.91,SE,128,5.0,5.0,61,0.00,CLR,,0.00,WeatherDisplay:10.37,2013-07-04 03:55:00,
2013-07-03 23:00:00,79.0,64.4,29.91,SE,129,4.6,4.6,61,0.00,CLR,,0.00,WeatherDisplay:10.37,2013-07-04 04:00:00,
2013-07-03 23:01:00,79.0,64.4,29.91,SE,135,5.8,5.8,61,0.00,CLR,,0.00,WeatherDisplay:10.37,2013-07-04 04:01:00,
2013-07-03 23:06:00,78.8,64.2,29.91,East,83,3.5,3.7,61,0.00,CLR,,0.00,WeatherDisplay:10.37,2013-07-04 04:06:00,
2013-07-03 23:11:00,78.6,64.0,29.91,ENE,77,3.5,3.5,61,0.00,CLR,,0.00,WeatherDisplay:10.37,2013-07-04 04:11:00,
2013-07-03 23:16:00,78.3,64.2,29.91,East,98,5.8,5.8,62,0.00,CLR,,0.00,WeatherDisplay:10.37,2013-07-04 04:16:00,
2013-07-03 23:21:00,78.0,63.9,29.91,SE,143,5.8,5.8,62,0.00,CLR,,0.00,WeatherDisplay:10.37,2013-07-04 04:21:00,
2013-07-03 23:26:00,77.8,63.7,29.91,SSE,153,5.8,5.8,62,0.00,CLR,,0.00,WeatherDisplay:10.37,2013-07-04 04:26:00,
2013-07-03 23:31:00,77.9,63.8,29.91,SSE,152,8.1,8.1,62,0.00,CLR,,0.00,WeatherDisplay:10.37,2013-07-04 04:31:00,
2013-07-03 23:36:00,78.1,63.6,29.91,ESE,121,8.1,8.1,61,0.00,CLR,,0.00,WeatherDisplay:10.37,2013-07-04 04:36:00,
2013-07-03 23:41:00,77.9,63.8,29.91,SE,146,3.5,3.5,62,0.00,CLR,,0.00,WeatherDisplay:10.37,2013-07-04 04:41:00,
2013-07-03 23:46:00,77.7,63.6,29.91,SE,135,4.6,4.6,62,0.00,CLR,,0.00,WeatherDisplay:10.37,2013-07-04 04:46:00,
2013-07-03 23:51:00,77.5,63.5,29.91,ESE,116,5.0,5.0,62,0.00,CLR,,0.00,WeatherDisplay:10.37,2013-07-04 04:51:00,
2013-07-03 23:56:00,77.4,63.4,29.92,SE,141,5.8,5.8,62,0.00,CLR,,0.00,WeatherDisplay:10.37,2013-07-04 04:56:00,